sensor_id;sensor_type;location;lat;lon;timestamp;temperature;humidity
72206;DHT22;60111;48.286;7.812;2022-11-24T00:01:32;9.20;99.90
72206;DHT22;60111;48.286;7.812;2022-11-24T00:04:05;9.20;99.90
72206;DHT22;60111;48.286;7.812;2022-11-24T00:06:37;9.30;99.90
72206;DHT22;60111;48.286;7.812;2022-11-24T00:09:10;9.30;99.90
72206;DHT22;60111;48.286;7.812;2022-11-24T00:11:43;9.30;99.90
72206;DHT22;60111;48.286;7.812;2022-11-24T00:14:16;9.20;99.90
72206;DHT22;60111;48.286;7.812;2022-11-24T00:16:48;9.10;99.90
72206;DHT22;60111;48.286;7.812;2022-11-24T00:19:21;9.10;99.90
72206;DHT22;60111;48.286;7.812;2022-11-24T00:21:53;9.10;99.90
72206;DHT22;60111;48.286;7.812;2022-11-24T00:24:26;9.10;99.90
72206;DHT22;60111;48.286;7.812;2022-11-24T00:26:58;9.10;99.90
72206;DHT22;60111;48.286;7.812;2022-11-24T00:29:31;9.10;99.90
72206;DHT22;60111;48.286;7.812;2022-11-24T00:32:03;9.10;99.90
72206;DHT22;60111;48.286;7.812;2022-11-24T00:34:37;9.10;99.90
72206;DHT22;60111;48.286;7.812;2022-11-24T00:37:09;9.10;99.90
72206;DHT22;60111;48.286;7.812;2022-11-24T00:39:42;9.10;99.90
72206;DHT22;60111;48.286;7.812;2022-11-24T00:42:14;9.10;99.90
72206;DHT22;60111;48.286;7.812;2022-11-24T00:44:47;9.10;99.90
72206;DHT22;60111;48.286;7.812;2022-11-24T00:47:20;9.00;99.90
72206;DHT22;60111;48.286;7.812;2022-11-24T00:49:52;9.00;99.90
72206;DHT22;60111;48.286;7.812;2022-11-24T00:52:25;9.00;99.90
72206;DHT22;60111;48.286;7.812;2022-11-24T00:54:57;9.00;99.90
72206;DHT22;60111;48.286;7.812;2022-11-24T00:57:30;9.00;99.90
72206;DHT22;60111;48.286;7.812;2022-11-24T01:00:05;9.00;99.90
72206;DHT22;60111;48.286;7.812;2022-11-24T01:02:37;9.00;99.90
72206;DHT22;60111;48.286;7.812;2022-11-24T01:05:10;9.00;99.90
72206;DHT22;60111;48.286;7.812;2022-11-24T01:07:43;9.00;99.90
72206;DHT22;60111;48.286;7.812;2022-11-24T01:10:16;9.00;99.90
72206;DHT22;60111;48.286;7.812;2022-11-24T01:12:48;9.00;99.90
72206;DHT22;60111;48.286;7.812;2022-11-24T01:15:22;8.90;99.90
72206;DHT22;60111;48.286;7.812;2022-11-24T01:17:55;9.00;99.90
72206;DHT22;60111;48.286;7.812;2022-11-24T01:20:28;9.00;99.90
72206;DHT22;60111;48.286;7.812;2022-11-24T01:23:01;9.00;99.90
72206;DHT22;60111;48.286;7.812;2022-11-24T01:25:33;9.00;99.90
72206;DHT22;60111;48.286;7.812;2022-11-24T01:28:06;9.00;99.90
72206;DHT22;60111;48.286;7.812;2022-11-24T01:30:38;9.00;99.90
72206;DHT22;60111;48.286;7.812;2022-11-24T01:33:11;8.90;99.90
72206;DHT22;60111;48.286;7.812;2022-11-24T01:35:45;8.90;99.90
72206;DHT22;60111;48.286;7.812;2022-11-24T01:38:18;8.80;99.90
72206;DHT22;60111;48.286;7.812;2022-11-24T01:41:11;8.90;99.90
72206;DHT22;60111;48.286;7.812;2022-11-24T01:43:42;8.80;99.90
72206;DHT22;60111;48.286;7.812;2022-11-24T01:46:37;8.80;99.90
72206;DHT22;60111;48.286;7.812;2022-11-24T01:49:16;8.80;99.90
72206;DHT22;60111;48.286;7.812;2022-11-24T01:51:54;8.80;99.90
72206;DHT22;60111;48.286;7.812;2022-11-24T01:54:30;8.80;99.90
72206;DHT22;60111;48.286;7.812;2022-11-24T01:57:14;8.80;99.90
72206;DHT22;60111;48.286;7.812;2022-11-24T01:59:46;8.70;99.90
72206;DHT22;60111;48.286;7.812;2022-11-24T02:02:20;8.70;99.90
72206;DHT22;60111;48.286;7.812;2022-11-24T02:04:54;8.80;99.90
72206;DHT22;60111;48.286;7.812;2022-11-24T02:07:27;8.80;99.90
72206;DHT22;60111;48.286;7.812;2022-11-24T02:10:08;8.90;99.90
72206;DHT22;60111;48.286;7.812;2022-11-24T02:12:49;8.90;99.90
72206;DHT22;60111;48.286;7.812;2022-11-24T02:15:18;8.90;99.90
72206;DHT22;60111;48.286;7.812;2022-11-24T02:17:51;8.90;99.90
72206;DHT22;60111;48.286;7.812;2022-11-24T02:20:24;8.90;99.90
72206;DHT22;60111;48.286;7.812;2022-11-24T02:23:08;8.90;99.90
72206;DHT22;60111;48.286;7.812;2022-11-24T02:28:23;8.80;99.90
72206;DHT22;60111;48.286;7.812;2022-11-24T02:30:59;8.70;99.90
72206;DHT22;60111;48.286;7.812;2022-11-24T02:33:33;8.80;99.90
72206;DHT22;60111;48.286;7.812;2022-11-24T02:36:06;8.80;99.90
72206;DHT22;60111;48.286;7.812;2022-11-24T02:38:39;8.70;99.90
72206;DHT22;60111;48.286;7.812;2022-11-24T02:41:15;8.70;99.90
72206;DHT22;60111;48.286;7.812;2022-11-24T02:43:51;8.70;99.90
72206;DHT22;60111;48.286;7.812;2022-11-24T02:46:23;8.70;99.90
72206;DHT22;60111;48.286;7.812;2022-11-24T02:48:55;8.70;99.90
72206;DHT22;60111;48.286;7.812;2022-11-24T02:51:28;8.70;99.90
72206;DHT22;60111;48.286;7.812;2022-11-24T02:54:00;8.70;99.90
72206;DHT22;60111;48.286;7.812;2022-11-24T02:56:33;8.70;99.90
72206;DHT22;60111;48.286;7.812;2022-11-24T02:59:06;8.80;99.90
72206;DHT22;60111;48.286;7.812;2022-11-24T03:01:40;8.90;99.90
72206;DHT22;60111;48.286;7.812;2022-11-24T03:04:12;8.80;99.90
72206;DHT22;60111;48.286;7.812;2022-11-24T03:06:45;8.80;99.90
72206;DHT22;60111;48.286;7.812;2022-11-24T03:09:17;8.90;99.90
72206;DHT22;60111;48.286;7.812;2022-11-24T03:11:50;8.90;99.90
72206;DHT22;60111;48.286;7.812;2022-11-24T03:14:23;9.00;99.90
72206;DHT22;60111;48.286;7.812;2022-11-24T03:16:55;9.00;99.90
72206;DHT22;60111;48.286;7.812;2022-11-24T03:19:28;9.10;99.90
72206;DHT22;60111;48.286;7.812;2022-11-24T03:22:00;9.10;99.90
72206;DHT22;60111;48.286;7.812;2022-11-24T03:24:33;9.10;99.90
72206;DHT22;60111;48.286;7.812;2022-11-24T03:27:05;9.00;99.90
72206;DHT22;60111;48.286;7.812;2022-11-24T03:29:38;9.00;99.90
72206;DHT22;60111;48.286;7.812;2022-11-24T03:32:11;9.00;99.90
72206;DHT22;60111;48.286;7.812;2022-11-24T03:34:43;9.00;99.90
72206;DHT22;60111;48.286;7.812;2022-11-24T03:37:16;9.00;99.90
72206;DHT22;60111;48.286;7.812;2022-11-24T03:39:48;9.00;99.90
72206;DHT22;60111;48.286;7.812;2022-11-24T03:42:21;9.00;99.90
72206;DHT22;60111;48.286;7.812;2022-11-24T03:44:53;8.90;99.90
72206;DHT22;60111;48.286;7.812;2022-11-24T03:47:26;8.90;99.90
72206;DHT22;60111;48.286;7.812;2022-11-24T03:49:58;8.80;99.90
72206;DHT22;60111;48.286;7.812;2022-11-24T03:52:31;8.90;99.90
72206;DHT22;60111;48.286;7.812;2022-11-24T03:55:04;9.00;99.90
72206;DHT22;60111;48.286;7.812;2022-11-24T03:57:36;9.00;99.90
72206;DHT22;60111;48.286;7.812;2022-11-24T04:00:09;8.90;99.90
72206;DHT22;60111;48.286;7.812;2022-11-24T04:02:42;8.90;99.90
72206;DHT22;60111;48.286;7.812;2022-11-24T04:05:15;8.90;99.90
72206;DHT22;60111;48.286;7.812;2022-11-24T04:07:47;8.90;99.90
72206;DHT22;60111;48.286;7.812;2022-11-24T04:10:20;8.90;99.90
72206;DHT22;60111;48.286;7.812;2022-11-24T04:12:53;8.90;99.90
72206;DHT22;60111;48.286;7.812;2022-11-24T04:15:25;8.90;99.90
72206;DHT22;60111;48.286;7.812;2022-11-24T04:17:58;8.90;99.90
72206;DHT22;60111;48.286;7.812;2022-11-24T04:20:30;9.00;99.90
72206;DHT22;60111;48.286;7.812;2022-11-24T04:23:03;9.10;99.90
72206;DHT22;60111;48.286;7.812;2022-11-24T04:25:36;9.00;99.90
72206;DHT22;60111;48.286;7.812;2022-11-24T04:28:09;9.00;99.90
72206;DHT22;60111;48.286;7.812;2022-11-24T04:30:41;9.00;99.90
72206;DHT22;60111;48.286;7.812;2022-11-24T04:33:15;9.00;99.90
72206;DHT22;60111;48.286;7.812;2022-11-24T04:35:47;9.00;99.90
72206;DHT22;60111;48.286;7.812;2022-11-24T04:38:20;9.00;99.90
72206;DHT22;60111;48.286;7.812;2022-11-24T04:40:53;9.00;99.90
72206;DHT22;60111;48.286;7.812;2022-11-24T04:43:25;9.10;99.90
72206;DHT22;60111;48.286;7.812;2022-11-24T04:46:01;9.10;99.90
72206;DHT22;60111;48.286;7.812;2022-11-24T04:48:33;9.10;99.90
72206;DHT22;60111;48.286;7.812;2022-11-24T04:51:07;9.10;99.90
72206;DHT22;60111;48.286;7.812;2022-11-24T04:53:39;9.10;99.90
72206;DHT22;60111;48.286;7.812;2022-11-24T04:56:12;9.10;99.90
72206;DHT22;60111;48.286;7.812;2022-11-24T04:58:47;9.10;99.90
72206;DHT22;60111;48.286;7.812;2022-11-24T05:01:20;9.10;99.90
72206;DHT22;60111;48.286;7.812;2022-11-24T05:03:54;9.10;99.90
72206;DHT22;60111;48.286;7.812;2022-11-24T05:06:27;9.00;99.90
72206;DHT22;60111;48.286;7.812;2022-11-24T05:08:59;9.00;99.90
72206;DHT22;60111;48.286;7.812;2022-11-24T05:11:32;9.00;99.90
72206;DHT22;60111;48.286;7.812;2022-11-24T05:14:05;9.00;99.90
72206;DHT22;60111;48.286;7.812;2022-11-24T05:16:37;9.00;99.90
72206;DHT22;60111;48.286;7.812;2022-11-24T05:19:11;9.00;99.90
72206;DHT22;60111;48.286;7.812;2022-11-24T05:21:43;9.00;99.90
72206;DHT22;60111;48.286;7.812;2022-11-24T05:24:16;9.00;99.90
72206;DHT22;60111;48.286;7.812;2022-11-24T05:26:49;9.10;99.90
72206;DHT22;60111;48.286;7.812;2022-11-24T05:29:21;9.10;99.90
72206;DHT22;60111;48.286;7.812;2022-11-24T05:31:54;9.10;99.90
72206;DHT22;60111;48.286;7.812;2022-11-24T05:34:27;9.10;99.90
72206;DHT22;60111;48.286;7.812;2022-11-24T05:37:01;9.10;99.90
72206;DHT22;60111;48.286;7.812;2022-11-24T05:39:35;9.10;99.90
72206;DHT22;60111;48.286;7.812;2022-11-24T05:42:07;9.10;99.90
72206;DHT22;60111;48.286;7.812;2022-11-24T05:44:58;9.20;99.90
72206;DHT22;60111;48.286;7.812;2022-11-24T05:47:31;9.20;99.90
72206;DHT22;60111;48.286;7.812;2022-11-24T05:50:04;9.20;99.90
72206;DHT22;60111;48.286;7.812;2022-11-24T05:52:37;9.20;99.90
72206;DHT22;60111;48.286;7.812;2022-11-24T05:55:10;9.20;99.90
72206;DHT22;60111;48.286;7.812;2022-11-24T05:57:45;9.20;99.90
72206;DHT22;60111;48.286;7.812;2022-11-24T06:00:17;9.30;99.90
72206;DHT22;60111;48.286;7.812;2022-11-24T06:02:50;9.20;99.90
72206;DHT22;60111;48.286;7.812;2022-11-24T06:05:23;9.30;99.90
72206;DHT22;60111;48.286;7.812;2022-11-24T06:07:58;9.30;99.90
72206;DHT22;60111;48.286;7.812;2022-11-24T06:10:31;9.30;99.90
72206;DHT22;60111;48.286;7.812;2022-11-24T06:13:05;9.20;99.90
72206;DHT22;60111;48.286;7.812;2022-11-24T06:15:39;9.30;99.90
72206;DHT22;60111;48.286;7.812;2022-11-24T06:18:11;9.20;99.90
72206;DHT22;60111;48.286;7.812;2022-11-24T06:20:44;9.20;99.90
72206;DHT22;60111;48.286;7.812;2022-11-24T06:23:17;9.20;99.90
72206;DHT22;60111;48.286;7.812;2022-11-24T06:25:49;9.20;99.90
72206;DHT22;60111;48.286;7.812;2022-11-24T06:28:23;9.20;99.90
72206;DHT22;60111;48.286;7.812;2022-11-24T06:31:01;9.20;99.90
72206;DHT22;60111;48.286;7.812;2022-11-24T06:33:36;9.20;99.90
72206;DHT22;60111;48.286;7.812;2022-11-24T06:36:10;9.20;99.90
72206;DHT22;60111;48.286;7.812;2022-11-24T06:38:43;9.20;99.90
72206;DHT22;60111;48.286;7.812;2022-11-24T06:41:16;9.10;99.90
72206;DHT22;60111;48.286;7.812;2022-11-24T06:43:49;9.10;99.90
72206;DHT22;60111;48.286;7.812;2022-11-24T06:46:22;9.00;99.90
72206;DHT22;60111;48.286;7.812;2022-11-24T06:48:54;9.00;99.90
72206;DHT22;60111;48.286;7.812;2022-11-24T06:51:27;9.10;99.90
72206;DHT22;60111;48.286;7.812;2022-11-24T06:54:00;9.20;99.90
72206;DHT22;60111;48.286;7.812;2022-11-24T06:56:33;9.10;99.90
72206;DHT22;60111;48.286;7.812;2022-11-24T06:59:06;9.20;99.90
72206;DHT22;60111;48.286;7.812;2022-11-24T07:01:38;9.10;99.90
72206;DHT22;60111;48.286;7.812;2022-11-24T07:04:11;9.10;99.90
72206;DHT22;60111;48.286;7.812;2022-11-24T07:06:44;9.10;99.90
72206;DHT22;60111;48.286;7.812;2022-11-24T07:09:17;9.10;99.90
72206;DHT22;60111;48.286;7.812;2022-11-24T07:11:49;9.10;99.90
72206;DHT22;60111;48.286;7.812;2022-11-24T07:14:23;9.00;99.90
72206;DHT22;60111;48.286;7.812;2022-11-24T07:16:55;9.00;99.90
72206;DHT22;60111;48.286;7.812;2022-11-24T07:19:28;9.00;99.90
72206;DHT22;60111;48.286;7.812;2022-11-24T07:22:01;9.00;99.90
72206;DHT22;60111;48.286;7.812;2022-11-24T07:24:33;9.00;99.90
72206;DHT22;60111;48.286;7.812;2022-11-24T07:27:06;9.10;99.90
72206;DHT22;60111;48.286;7.812;2022-11-24T07:29:38;9.10;99.90
72206;DHT22;60111;48.286;7.812;2022-11-24T07:32:11;9.00;99.90
72206;DHT22;60111;48.286;7.812;2022-11-24T07:34:43;9.00;99.90
72206;DHT22;60111;48.286;7.812;2022-11-24T07:37:16;8.90;99.90
72206;DHT22;60111;48.286;7.812;2022-11-24T07:39:49;8.90;99.90
72206;DHT22;60111;48.286;7.812;2022-11-24T07:42:21;9.00;99.90
72206;DHT22;60111;48.286;7.812;2022-11-24T07:44:54;8.90;99.90
72206;DHT22;60111;48.286;7.812;2022-11-24T07:47:26;9.00;99.90
72206;DHT22;60111;48.286;7.812;2022-11-24T07:49:59;9.00;99.90
72206;DHT22;60111;48.286;7.812;2022-11-24T07:52:31;9.00;99.90
72206;DHT22;60111;48.286;7.812;2022-11-24T07:55:05;9.10;99.90
72206;DHT22;60111;48.286;7.812;2022-11-24T07:57:38;9.10;99.90
72206;DHT22;60111;48.286;7.812;2022-11-24T08:00:11;9.10;99.90
72206;DHT22;60111;48.286;7.812;2022-11-24T08:02:44;9.00;99.90
72206;DHT22;60111;48.286;7.812;2022-11-24T08:05:17;9.00;99.90
72206;DHT22;60111;48.286;7.812;2022-11-24T08:07:49;9.10;99.90
72206;DHT22;60111;48.286;7.812;2022-11-24T08:10:22;9.10;99.90
72206;DHT22;60111;48.286;7.812;2022-11-24T08:12:58;9.10;99.90
72206;DHT22;60111;48.286;7.812;2022-11-24T08:15:28;9.10;99.90
72206;DHT22;60111;48.286;7.812;2022-11-24T08:18:01;9.20;99.90
72206;DHT22;60111;48.286;7.812;2022-11-24T08:20:34;9.30;99.90
72206;DHT22;60111;48.286;7.812;2022-11-24T08:23:06;9.20;99.90
72206;DHT22;60111;48.286;7.812;2022-11-24T08:25:39;9.20;99.90
72206;DHT22;60111;48.286;7.812;2022-11-24T08:28:11;9.30;99.90
72206;DHT22;60111;48.286;7.812;2022-11-24T08:30:44;9.20;99.90
72206;DHT22;60111;48.286;7.812;2022-11-24T08:33:17;9.30;99.90
72206;DHT22;60111;48.286;7.812;2022-11-24T08:35:49;9.30;99.90
72206;DHT22;60111;48.286;7.812;2022-11-24T08:38:22;9.40;99.90
72206;DHT22;60111;48.286;7.812;2022-11-24T08:40:59;9.30;99.90
72206;DHT22;60111;48.286;7.812;2022-11-24T08:43:32;9.30;99.90
72206;DHT22;60111;48.286;7.812;2022-11-24T08:46:08;9.50;99.90
72206;DHT22;60111;48.286;7.812;2022-11-24T08:48:41;9.60;99.90
72206;DHT22;60111;48.286;7.812;2022-11-24T08:51:16;9.60;99.90
72206;DHT22;60111;48.286;7.812;2022-11-24T08:53:54;9.60;99.90
72206;DHT22;60111;48.286;7.812;2022-11-24T08:56:29;9.60;99.90
72206;DHT22;60111;48.286;7.812;2022-11-24T08:59:02;9.50;99.90
72206;DHT22;60111;48.286;7.812;2022-11-24T09:01:34;9.60;99.90
72206;DHT22;60111;48.286;7.812;2022-11-24T09:04:07;9.70;99.90
72206;DHT22;60111;48.286;7.812;2022-11-24T09:06:39;9.90;99.90
72206;DHT22;60111;48.286;7.812;2022-11-24T09:09:12;10.10;99.90
72206;DHT22;60111;48.286;7.812;2022-11-24T09:11:45;10.30;99.90
72206;DHT22;60111;48.286;7.812;2022-11-24T09:14:17;10.50;99.90
72206;DHT22;60111;48.286;7.812;2022-11-24T09:16:50;10.70;99.90
72206;DHT22;60111;48.286;7.812;2022-11-24T09:19:23;10.90;99.90
72206;DHT22;60111;48.286;7.812;2022-11-24T09:21:56;10.90;99.90
72206;DHT22;60111;48.286;7.812;2022-11-24T09:24:28;10.90;99.90
72206;DHT22;60111;48.286;7.812;2022-11-24T09:27:01;10.80;99.90
72206;DHT22;60111;48.286;7.812;2022-11-24T09:29:34;10.70;99.90
72206;DHT22;60111;48.286;7.812;2022-11-24T09:32:06;10.70;99.90
72206;DHT22;60111;48.286;7.812;2022-11-24T09:34:39;10.80;99.90
72206;DHT22;60111;48.286;7.812;2022-11-24T09:37:11;11.20;99.90
72206;DHT22;60111;48.286;7.812;2022-11-24T09:39:44;11.20;99.90
72206;DHT22;60111;48.286;7.812;2022-11-24T09:48:02;10.80;99.90
72206;DHT22;60111;48.286;7.812;2022-11-24T09:50:37;10.80;99.90
72206;DHT22;60111;48.286;7.812;2022-11-24T09:53:27;10.60;99.90
72206;DHT22;60111;48.286;7.812;2022-11-24T09:55:59;10.70;99.90
72206;DHT22;60111;48.286;7.812;2022-11-24T09:58:53;10.70;99.90
72206;DHT22;60111;48.286;7.812;2022-11-24T10:01:35;10.90;99.90
72206;DHT22;60111;48.286;7.812;2022-11-24T10:24:15;12.60;99.90
72206;DHT22;60111;48.286;7.812;2022-11-24T10:26:50;12.90;99.90
72206;DHT22;60111;48.286;7.812;2022-11-24T10:29:33;13.10;99.90
72206;DHT22;60111;48.286;7.812;2022-11-24T10:32:56;13.70;99.90
72206;DHT22;60111;48.286;7.812;2022-11-24T10:34:43;14.40;99.90
72206;DHT22;60111;48.286;7.812;2022-11-24T10:37:21;14.80;99.90
72206;DHT22;60111;48.286;7.812;2022-11-24T10:40:16;15.20;99.90
72206;DHT22;60111;48.286;7.812;2022-11-24T10:42:47;15.70;99.90
72206;DHT22;60111;48.286;7.812;2022-11-24T10:45:21;15.60;99.90
72206;DHT22;60111;48.286;7.812;2022-11-24T10:47:54;15.60;99.90
72206;DHT22;60111;48.286;7.812;2022-11-24T10:50:32;15.10;99.90
72206;DHT22;60111;48.286;7.812;2022-11-24T10:53:15;14.80;99.90
72206;DHT22;60111;48.286;7.812;2022-11-24T10:55:58;14.40;99.90
72206;DHT22;60111;48.286;7.812;2022-11-24T10:58:33;14.00;99.90
72206;DHT22;60111;48.286;7.812;2022-11-24T11:03:55;13.60;99.90
72206;DHT22;60111;48.286;7.812;2022-11-24T11:06:30;13.60;99.90
72206;DHT22;60111;48.286;7.812;2022-11-24T11:11:42;14.10;99.90
72206;DHT22;60111;48.286;7.812;2022-11-24T11:14:32;13.90;99.90
72206;DHT22;60111;48.286;7.812;2022-11-24T11:20:18;14.10;99.90
72206;DHT22;60111;48.286;7.812;2022-11-24T11:22:53;14.40;99.90
72206;DHT22;60111;48.286;7.812;2022-11-24T11:25:29;14.40;99.90
72206;DHT22;60111;48.286;7.812;2022-11-24T11:28:24;14.30;99.90
72206;DHT22;60111;48.286;7.812;2022-11-24T11:30:58;14.70;99.90
72206;DHT22;60111;48.286;7.812;2022-11-24T11:33:33;15.10;99.90
72206;DHT22;60111;48.286;7.812;2022-11-24T11:36:09;15.20;99.90
72206;DHT22;60111;48.286;7.812;2022-11-24T11:38:41;15.00;99.90
72206;DHT22;60111;48.286;7.812;2022-11-24T11:41:29;14.60;99.90
72206;DHT22;60111;48.286;7.812;2022-11-24T11:44:26;14.40;99.90
72206;DHT22;60111;48.286;7.812;2022-11-24T11:46:47;14.20;99.90
72206;DHT22;60111;48.286;7.812;2022-11-24T11:49:20;14.20;99.90
72206;DHT22;60111;48.286;7.812;2022-11-24T11:57:30;14.60;99.90
72206;DHT22;60111;48.286;7.812;2022-11-24T12:00:20;14.30;99.90
72206;DHT22;60111;48.286;7.812;2022-11-24T12:05:50;14.60;99.90
72206;DHT22;60111;48.286;7.812;2022-11-24T12:08:50;14.60;99.90
72206;DHT22;60111;48.286;7.812;2022-11-24T12:11:34;14.30;99.90
72206;DHT22;60111;48.286;7.812;2022-11-24T12:14:16;14.00;99.90
72206;DHT22;60111;48.286;7.812;2022-11-24T12:19:56;13.80;99.90
72206;DHT22;60111;48.286;7.812;2022-11-24T12:23:47;13.60;99.90
72206;DHT22;60111;48.286;7.812;2022-11-24T12:25:35;13.50;99.90
72206;DHT22;60111;48.286;7.812;2022-11-24T12:28:35;13.40;99.90
72206;DHT22;60111;48.286;7.812;2022-11-24T12:31:07;13.90;99.90
72206;DHT22;60111;48.286;7.812;2022-11-24T12:34:07;14.60;99.90
72206;DHT22;60111;48.286;7.812;2022-11-24T12:36:48;15.10;99.90
72206;DHT22;60111;48.286;7.812;2022-11-24T12:39:41;15.70;99.90
72206;DHT22;60111;48.286;7.812;2022-11-24T12:42:29;16.10;99.90
72206;DHT22;60111;48.286;7.812;2022-11-24T12:45:03;15.80;99.90
72206;DHT22;60111;48.286;7.812;2022-11-24T12:50:14;14.80;99.90
72206;DHT22;60111;48.286;7.812;2022-11-24T12:52:55;14.40;99.90
72206;DHT22;60111;48.286;7.812;2022-11-24T12:55:24;14.00;99.90
72206;DHT22;60111;48.286;7.812;2022-11-24T13:01:06;14.00;99.90
72206;DHT22;60111;48.286;7.812;2022-11-24T13:09:09;13.80;99.90
72206;DHT22;60111;48.286;7.812;2022-11-24T13:11:51;13.70;99.90
72206;DHT22;60111;48.286;7.812;2022-11-24T13:14:35;13.60;99.90
72206;DHT22;60111;48.286;7.812;2022-11-24T13:17:30;13.60;99.90
72206;DHT22;60111;48.286;7.812;2022-11-24T13:20:33;13.60;99.90
72206;DHT22;60111;48.286;7.812;2022-11-24T13:23:18;13.50;99.90
72206;DHT22;60111;48.286;7.812;2022-11-24T13:25:44;13.60;99.90
72206;DHT22;60111;48.286;7.812;2022-11-24T13:28:58;13.70;99.90
72206;DHT22;60111;48.286;7.812;2022-11-24T13:31:27;13.90;99.90
72206;DHT22;60111;48.286;7.812;2022-11-24T13:33:59;14.20;99.90
72206;DHT22;60111;48.286;7.812;2022-11-24T13:36:51;14.40;99.90
72206;DHT22;60111;48.286;7.812;2022-11-24T13:42:03;14.50;99.90
72206;DHT22;60111;48.286;7.812;2022-11-24T13:44:46;14.50;99.90
72206;DHT22;60111;48.286;7.812;2022-11-24T13:50:22;14.70;99.90
72206;DHT22;60111;48.286;7.812;2022-11-24T13:53:06;14.60;99.90
72206;DHT22;60111;48.286;7.812;2022-11-24T13:55:40;14.50;99.90
72206;DHT22;60111;48.286;7.812;2022-11-24T14:04:16;14.30;99.90
72206;DHT22;60111;48.286;7.812;2022-11-24T14:09:41;14.10;99.90
72206;DHT22;60111;48.286;7.812;2022-11-24T14:12:19;14.00;99.90
72206;DHT22;60111;48.286;7.812;2022-11-24T14:14:53;13.90;99.90
72206;DHT22;60111;48.286;7.812;2022-11-24T14:17:26;13.80;99.90
72206;DHT22;60111;48.286;7.812;2022-11-24T14:19:59;13.70;99.90
72206;DHT22;60111;48.286;7.812;2022-11-24T14:22:40;13.50;99.90
72206;DHT22;60111;48.286;7.812;2022-11-24T14:25:25;13.50;99.90
72206;DHT22;60111;48.286;7.812;2022-11-24T14:27:57;13.40;99.90
72206;DHT22;60111;48.286;7.812;2022-11-24T14:30:30;13.30;99.90
72206;DHT22;60111;48.286;7.812;2022-11-24T14:33:08;13.20;99.90
72206;DHT22;60111;48.286;7.812;2022-11-24T14:35:42;13.20;99.90
72206;DHT22;60111;48.286;7.812;2022-11-24T14:38:15;13.20;99.90
72206;DHT22;60111;48.286;7.812;2022-11-24T14:40:53;13.30;99.90
72206;DHT22;60111;48.286;7.812;2022-11-24T14:43:30;13.30;99.90
72206;DHT22;60111;48.286;7.812;2022-11-24T14:46:05;13.40;99.90
72206;DHT22;60111;48.286;7.812;2022-11-24T14:48:51;13.40;99.90
72206;DHT22;60111;48.286;7.812;2022-11-24T14:51:27;13.30;99.90
72206;DHT22;60111;48.286;7.812;2022-11-24T14:54:02;13.20;99.90
72206;DHT22;60111;48.286;7.812;2022-11-24T14:56:37;13.30;99.90
72206;DHT22;60111;48.286;7.812;2022-11-24T14:59:23;13.20;99.90
72206;DHT22;60111;48.286;7.812;2022-11-24T15:01:56;13.10;99.90
72206;DHT22;60111;48.286;7.812;2022-11-24T15:04:30;13.00;99.90
72206;DHT22;60111;48.286;7.812;2022-11-24T15:09:54;12.90;99.90
72206;DHT22;60111;48.286;7.812;2022-11-24T15:17:55;12.60;99.90
72206;DHT22;60111;48.286;7.812;2022-11-24T15:20:30;12.60;99.90
72206;DHT22;60111;48.286;7.812;2022-11-24T15:23:20;12.50;99.90
72206;DHT22;60111;48.286;7.812;2022-11-24T15:28:37;12.30;99.90
72206;DHT22;60111;48.286;7.812;2022-11-24T15:31:12;12.30;99.90
72206;DHT22;60111;48.286;7.812;2022-11-24T15:33:44;12.20;99.90
72206;DHT22;60111;48.286;7.812;2022-11-24T15:36:17;12.10;99.90
72206;DHT22;60111;48.286;7.812;2022-11-24T15:38:51;12.00;99.90
72206;DHT22;60111;48.286;7.812;2022-11-24T15:41:29;11.90;99.90
72206;DHT22;60111;48.286;7.812;2022-11-24T15:44:02;11.80;99.90
72206;DHT22;60111;48.286;7.812;2022-11-24T15:46:35;11.70;99.90
72206;DHT22;60111;48.286;7.812;2022-11-24T15:49:09;11.70;99.90
72206;DHT22;60111;48.286;7.812;2022-11-24T15:51:43;11.60;99.90
72206;DHT22;60111;48.286;7.812;2022-11-24T15:54:18;11.50;99.90
72206;DHT22;60111;48.286;7.812;2022-11-24T15:56:51;11.40;99.90
72206;DHT22;60111;48.286;7.812;2022-11-24T15:59:24;11.30;99.90
72206;DHT22;60111;48.286;7.812;2022-11-24T16:01:57;11.30;99.90
72206;DHT22;60111;48.286;7.812;2022-11-24T16:04:29;11.20;99.90
72206;DHT22;60111;48.286;7.812;2022-11-24T16:07:02;11.20;99.90
72206;DHT22;60111;48.286;7.812;2022-11-24T16:09:37;11.10;99.90
72206;DHT22;60111;48.286;7.812;2022-11-24T16:12:09;11.00;99.90
72206;DHT22;60111;48.286;7.812;2022-11-24T16:14:42;10.90;99.90
72206;DHT22;60111;48.286;7.812;2022-11-24T16:17:15;10.90;99.90
72206;DHT22;60111;48.286;7.812;2022-11-24T16:19:47;10.80;99.90
72206;DHT22;60111;48.286;7.812;2022-11-24T16:22:20;10.80;99.90
72206;DHT22;60111;48.286;7.812;2022-11-24T16:24:52;10.70;99.90
72206;DHT22;60111;48.286;7.812;2022-11-24T16:27:25;10.60;99.90
72206;DHT22;60111;48.286;7.812;2022-11-24T16:29:58;10.60;99.90
72206;DHT22;60111;48.286;7.812;2022-11-24T16:32:31;10.50;99.90
72206;DHT22;60111;48.286;7.812;2022-11-24T16:35:04;10.50;99.90
72206;DHT22;60111;48.286;7.812;2022-11-24T16:37:37;10.50;99.90
72206;DHT22;60111;48.286;7.812;2022-11-24T16:40:10;10.40;99.90
72206;DHT22;60111;48.286;7.812;2022-11-24T16:42:42;10.40;99.90
72206;DHT22;60111;48.286;7.812;2022-11-24T16:45:15;10.40;99.90
72206;DHT22;60111;48.286;7.812;2022-11-24T16:47:48;10.40;99.90
72206;DHT22;60111;48.286;7.812;2022-11-24T16:50:21;10.20;99.90
72206;DHT22;60111;48.286;7.812;2022-11-24T16:52:55;10.20;99.90
72206;DHT22;60111;48.286;7.812;2022-11-24T16:55:28;10.20;99.90
72206;DHT22;60111;48.286;7.812;2022-11-24T16:58:02;10.10;99.90
72206;DHT22;60111;48.286;7.812;2022-11-24T17:00:35;10.10;99.90
72206;DHT22;60111;48.286;7.812;2022-11-24T17:03:08;10.10;99.90
72206;DHT22;60111;48.286;7.812;2022-11-24T17:05:40;10.20;99.90
72206;DHT22;60111;48.286;7.812;2022-11-24T17:08:13;10.10;99.90
72206;DHT22;60111;48.286;7.812;2022-11-24T17:10:45;10.10;99.90
72206;DHT22;60111;48.286;7.812;2022-11-24T17:13:18;10.00;99.90
72206;DHT22;60111;48.286;7.812;2022-11-24T17:15:51;9.90;99.90
72206;DHT22;60111;48.286;7.812;2022-11-24T17:18:23;10.00;99.90
72206;DHT22;60111;48.286;7.812;2022-11-24T17:21:00;9.90;99.90
72206;DHT22;60111;48.286;7.812;2022-11-24T17:23:33;9.80;99.90
72206;DHT22;60111;48.286;7.812;2022-11-24T17:26:09;9.80;99.90
72206;DHT22;60111;48.286;7.812;2022-11-24T17:28:42;9.90;99.90
72206;DHT22;60111;48.286;7.812;2022-11-24T17:31:20;9.90;99.90
72206;DHT22;60111;48.286;7.812;2022-11-24T17:33:54;9.80;99.90
72206;DHT22;60111;48.286;7.812;2022-11-24T17:36:30;9.80;99.90
72206;DHT22;60111;48.286;7.812;2022-11-24T17:39:05;9.70;99.90
72206;DHT22;60111;48.286;7.812;2022-11-24T17:41:41;9.70;99.90
72206;DHT22;60111;48.286;7.812;2022-11-24T17:44:14;9.70;99.90
72206;DHT22;60111;48.286;7.812;2022-11-24T17:46:46;9.70;99.90
72206;DHT22;60111;48.286;7.812;2022-11-24T17:49:19;9.80;99.90
72206;DHT22;60111;48.286;7.812;2022-11-24T17:51:52;9.70;99.90
72206;DHT22;60111;48.286;7.812;2022-11-24T17:54:25;9.70;99.90